Time;durP1;ratioP1;P1;durP2;ratioP2;P2;SDS_P1;SDS_P2;PMS_P1;PMS_P2;Temp;Humidity;BMP_temperature;BMP_pressure;BME280_temperature;BME280_humidity;BME280_pressure;Samples;Min_cycle;Max_cycle;Signal;HPM_P1;HPM_P2
2023/01/17 00:03:08;;;;;;;1.55;1.10;;;5.00;67.10;;;;;;4983397;28;20058;-66
2023/01/17 00:09:54;;;;;;;1.60;1.20;;;5.00;67.30;;;;;;4999983;28;20069;-67
2023/01/17 00:13:13;;;;;;;2.75;1.40;;;4.90;67.20;;;;;;4982469;28;20080;-67
2023/01/17 00:16:21;;;;;;;4.30;1.52;;;4.90;67.40;;;;;;4959795;28;20043;-67
2023/01/17 01:35:40;;;;;;;1.30;1.20;;;4.70;68.40;;;;;;4997848;28;19925;-67
2023/01/17 01:38:07;;;;;;;2.58;1.20;;;4.70;68.00;;;;;;4985592;28;20050;-68
2023/01/17 01:40:33;;;;;;;3.53;1.40;;;4.70;68.20;;;;;;4998620;28;20025;-67
2023/01/17 01:43:04;;;;;;;2.42;1.50;;;4.60;68.30;;;;;;4985104;28;20096;-67
2023/01/17 01:45:33;;;;;;;2.05;1.30;;;4.60;68.40;;;;;;4986079;28;20065;-67
2023/01/17 01:48:04;;;;;;;2.97;1.52;;;4.60;68.40;;;;;;5000210;28;20022;-68
2023/01/17 01:50:32;;;;;;;1.58;1.40;;;4.60;68.50;;;;;;4999093;28;20386;-68
2023/01/17 01:53:01;;;;;;;1.52;1.30;;;4.60;68.50;;;;;;5000162;28;20022;-68
2023/01/17 01:55:37;;;;;;;1.33;1.23;;;4.60;68.60;;;;;;4984550;28;20244;-68
2023/01/17 01:58:16;;;;;;;1.30;1.20;;;4.70;68.80;;;;;;4999338;28;20045;-68
2023/01/17 02:00:42;;;;;;;2.53;1.13;;;4.70;68.90;;;;;;4986419;28;20095;-68
2023/01/17 02:03:30;;;;;;;1.25;1.00;;;4.70;68.80;;;;;;4982316;28;20416;-68
2023/01/17 02:06:25;;;;;;;1.35;1.10;;;4.70;68.90;;;;;;4984802;28;20147;-69
2023/01/17 02:08:51;;;;;;;1.20;1.10;;;4.70;68.90;;;;;;4974791;28;21044;-68
2023/01/17 02:11:17;;;;;;;1.50;1.40;;;4.80;68.70;;;;;;5000506;28;20026;-68
2023/01/17 02:13:44;;;;;;;1.73;1.20;;;4.80;68.60;;;;;;4983361;28;20098;-68
2023/01/17 02:16:48;;;;;;;1.45;1.20;;;4.80;68.50;;;;;;4985302;28;20062;-68
2023/01/17 02:20:24;;;;;;;2.20;1.17;;;4.80;68.60;;;;;;4997970;28;20037;-66
2023/01/17 02:24:00;;;;;;;2.63;1.40;;;4.80;68.40;;;;;;4928190;28;20120;-68
2023/01/17 02:27:16;;;;;;;1.20;1.10;;;4.80;68.20;;;;;;5003118;28;20042;-69
2023/01/17 02:30:50;;;;;;;1.40;1.20;;;4.70;68.40;;;;;;4996341;28;20035;-68
2023/01/17 02:34:25;;;;;;;1.23;1.10;;;4.70;68.30;;;;;;5000077;28;20043;-69
2023/01/17 02:38:00;;;;;;;2.80;1.10;;;4.70;68.40;;;;;;5002237;28;20054;-69
2023/01/17 02:41:52;;;;;;;1.63;1.30;;;4.70;68.40;;;;;;4923153;29;20044;-68
2023/01/17 02:45:24;;;;;;;1.30;1.20;;;4.60;68.30;;;;;;4866895;29;20056;-67
2023/01/17 02:49:10;;;;;;;1.20;1.10;;;4.60;68.30;;;;;;4813301;29;20043;-68
2023/01/17 02:56:09;;;;;;;1.35;1.25;;;4.50;68.20;;;;;;4760322;30;20062;-68
2023/01/17 02:59:15;;;;;;;1.52;1.15;;;4.50;68.20;;;;;;4782813;30;20056;-68
2023/01/17 03:02:46;;;;;;;1.98;1.40;;;4.50;68.30;;;;;;4754047;30;20043;-67
2023/01/17 03:06:33;;;;;;;1.98;1.40;;;4.50;68.30;;;;;;4782338;30;20581;-67
2023/01/17 03:10:03;;;;;;;1.63;1.30;;;4.40;68.30;;;;;;4745277;30;20036;-68
2023/01/17 03:13:36;;;;;;;3.30;1.60;;;4.40;68.30;;;;;;4724671;30;20056;-67
2023/01/17 03:17:02;;;;;;;2.05;1.70;;;4.40;68.40;;;;;;4803196;29;20077;-69
2023/01/17 03:19:39;;;;;;;2.80;1.55;;;4.40;68.40;;;;;;4869078;29;20052;-68
2023/01/17 03:22:05;;;;;;;1.40;1.30;;;4.40;68.40;;;;;;4884753;29;20050;-66
2023/01/17 03:24:32;;;;;;;2.78;1.50;;;4.40;68.50;;;;;;4881782;29;20544;-68
2023/01/17 03:26:58;;;;;;;1.58;1.30;;;4.40;68.60;;;;;;4872040;29;20090;-68
2023/01/17 03:29:39;;;;;;;2.70;1.40;;;4.40;68.60;;;;;;4874252;29;20048;-68
2023/01/17 03:32:06;;;;;;;2.53;1.48;;;4.40;68.60;;;;;;4869173;29;20044;-67
2023/01/17 03:34:53;;;;;;;1.83;1.33;;;4.50;68.60;;;;;;4884633;29;20104;-67
2023/01/17 03:37:19;;;;;;;1.52;1.13;;;4.50;68.70;;;;;;4890864;29;20049;-67
2023/01/17 03:39:45;;;;;;;2.58;1.30;;;4.50;68.70;;;;;;4898843;29;20048;-67
2023/01/17 03:42:14;;;;;;;3.22;1.20;;;4.50;68.80;;;;;;4892657;29;20100;-67
2023/01/17 03:44:40;;;;;;;1.45;1.20;;;4.50;68.80;;;;;;4891092;29;20092;-67
2023/01/17 03:47:24;;;;;;;2.05;1.20;;;4.50;68.80;;;;;;4913055;28;20057;-68
2023/01/17 03:49:50;;;;;;;1.27;1.15;;;4.50;68.90;;;;;;4988622;28;20058;-69
2023/01/17 03:52:21;;;;;;;1.50;1.20;;;4.50;68.60;;;;;;4965286;28;20035;-68
2023/01/17 03:54:48;;;;;;;1.50;1.25;;;4.50;68.60;;;;;;4943040;28;20046;-68
2023/01/17 03:57:15;;;;;;;2.88;1.20;;;4.60;68.70;;;;;;4969697;28;20035;-68
2023/01/17 03:59:44;;;;;;;3.08;1.30;;;4.60;68.90;;;;;;4954527;28;20046;-68
2023/01/17 04:02:14;;;;;;;1.73;1.30;;;4.60;68.90;;;;;;4949539;28;20035;-68
2023/01/17 04:04:39;;;;;;;1.40;1.23;;;4.60;68.90;;;;;;4945398;28;20093;-67
2023/01/17 04:07:05;;;;;;;1.88;1.50;;;4.60;69.00;;;;;;4961879;28;20027;-68
2023/01/17 04:09:33;;;;;;;2.10;1.58;;;4.60;68.90;;;;;;4959961;28;20083;-67
2023/01/17 04:12:01;;;;;;;2.97;1.60;;;4.60;69.00;;;;;;4977173;28;20030;-67
2023/01/17 04:14:27;;;;;;;2.42;1.60;;;4.60;69.10;;;;;;4959595;28;20134;-67
2023/01/17 04:16:54;;;;;;;2.95;1.70;;;4.70;69.00;;;;;;4948911;28;20136;-67
2023/01/17 04:19:50;;;;;;;1.88;1.70;;;4.70;68.90;;;;;;4931242;28;20087;-67
2023/01/17 04:22:16;;;;;;;2.05;1.73;;;4.70;68.90;;;;;;4972526;28;20086;-67
2023/01/17 04:24:50;;;;;;;7.05;2.90;;;4.70;68.80;;;;;;4964446;28;20111;-68
2023/01/17 04:27:17;;;;;;;3.60;2.08;;;4.70;68.80;;;;;;4977270;28;20023;-68
2023/01/17 04:29:44;;;;;;;4.18;2.53;;;4.70;68.80;;;;;;4951344;28;20031;-67
2023/01/17 04:32:10;;;;;;;4.43;2.45;;;4.70;68.80;;;;;;4980842;28;20036;-67
2023/01/17 04:34:36;;;;;;;3.20;1.75;;;4.70;68.80;;;;;;4960896;28;20059;-68
2023/01/17 04:37:02;;;;;;;2.35;1.58;;;4.70;68.90;;;;;;4979468;28;20051;-69
2023/01/17 04:39:28;;;;;;;1.70;1.60;;;4.70;68.90;;;;;;4962456;28;20046;-67
2023/01/17 04:41:54;;;;;;;3.08;1.60;;;4.60;68.80;;;;;;4963053;28;20475;-67
2023/01/17 04:44:21;;;;;;;4.50;1.98;;;4.60;68.80;;;;;;4964755;28;20489;-68
2023/01/17 04:46:46;;;;;;;2.72;2.17;;;4.60;68.90;;;;;;4974946;28;20114;-68
2023/01/17 04:49:14;;;;;;;4.05;2.65;;;4.60;68.90;;;;;;4958793;28;20031;-67
2023/01/17 04:51:41;;;;;;;4.35;2.35;;;4.60;69.00;;;;;;4947998;28;20041;-67
2023/01/17 04:54:07;;;;;;;5.78;3.33;;;4.60;68.90;;;;;;4979405;28;20382;-68
2023/01/17 04:56:33;;;;;;;5.72;3.30;;;4.60;68.90;;;;;;4977160;28;20046;-68
2023/01/17 04:58:58;;;;;;;7.35;3.60;;;4.60;68.90;;;;;;4975006;28;20030;-68
2023/01/17 05:01:24;;;;;;;5.60;3.05;;;4.60;68.90;;;;;;4962948;28;20039;-68
2023/01/17 05:03:50;;;;;;;5.55;3.47;;;4.60;68.80;;;;;;4965920;28;20054;-68
2023/01/17 05:06:17;;;;;;;7.55;3.58;;;4.60;68.80;;;;;;4983319;28;20601;-68
2023/01/17 05:08:43;;;;;;;6.85;3.45;;;4.50;68.70;;;;;;4999468;28;20046;-68
2023/01/17 05:11:11;;;;;;;6.43;3.60;;;4.50;68.60;;;;;;4994612;28;20041;-68
2023/01/17 05:13:37;;;;;;;5.18;3.03;;;4.50;68.60;;;;;;4997888;28;20053;-68
2023/01/17 05:16:03;;;;;;;3.70;2.80;;;4.40;68.60;;;;;;4983701;28;20042;-68
2023/01/17 05:19:19;;;;;;;3.60;2.63;;;4.40;68.70;;;;;;4970088;28;20295;-68
2023/01/17 05:21:45;;;;;;;4.47;2.80;;;4.30;68.60;;;;;;4999340;28;20043;-68
2023/01/17 05:24:14;;;;;;;6.75;3.28;;;4.30;68.50;;;;;;4999830;28;20499;-68
2023/01/17 05:26:41;;;;;;;6.85;3.30;;;4.20;68.60;;;;;;5002338;28;20031;-68
2023/01/17 05:29:08;;;;;;;7.15;4.03;;;4.20;68.70;;;;;;4997965;28;20030;-68
2023/01/17 05:31:34;;;;;;;12.93;4.07;;;4.20;68.70;;;;;;5000671;28;20042;-68
2023/01/17 05:34:01;;;;;;;6.28;3.50;;;4.10;68.60;;;;;;4997126;28;20057;-68
2023/01/17 05:36:27;;;;;;;7.72;3.70;;;4.10;68.60;;;;;;4991571;28;20046;-68
2023/01/17 05:38:52;;;;;;;4.57;2.60;;;4.00;68.60;;;;;;4982547;28;20034;-68
2023/01/17 05:41:18;;;;;;;3.25;2.40;;;4.00;68.70;;;;;;4999291;28;20100;-68
2023/01/17 05:43:44;;;;;;;10.98;3.97;;;4.00;68.70;;;;;;4980977;28;20409;-68
2023/01/17 05:46:10;;;;;;;4.38;2.83;;;4.00;68.70;;;;;;4984174;28;20039;-68
2023/01/17 05:48:35;;;;;;;6.65;3.30;;;3.90;68.70;;;;;;4978979;28;20587;-68
2023/01/17 05:51:01;;;;;;;5.35;3.20;;;3.90;69.50;;;;;;4999458;28;20018;-68
2023/01/17 05:53:27;;;;;;;5.68;3.28;;;3.90;68.80;;;;;;4996950;28;20050;-68
2023/01/17 05:55:52;;;;;;;6.80;2.97;;;3.80;68.70;;;;;;4982374;28;20046;-68
2023/01/17 05:58:21;;;;;;;5.45;2.55;;;3.80;68.60;;;;;;4981854;28;20029;-68
2023/01/17 06:00:48;;;;;;;1.95;1.50;;;3.80;68.60;;;;;;4975182;28;20061;-68
2023/01/17 06:03:14;;;;;;;1.92;1.38;;;3.80;68.70;;;;;;4977098;28;20035;-68
2023/01/17 06:05:41;;;;;;;2.13;1.42;;;3.70;68.70;;;;;;4999304;28;20047;-68
2023/01/17 06:08:08;;;;;;;3.35;2.50;;;3.70;68.70;;;;;;5003022;28;20054;-67
2023/01/17 06:10:34;;;;;;;4.57;2.92;;;3.60;68.70;;;;;;4986031;28;20022;-67
2023/01/17 06:13:06;;;;;;;6.25;3.63;;;3.60;68.70;;;;;;5002372;28;20026;-68
2023/01/17 06:15:35;;;;;;;23.95;11.55;;;3.60;68.70;;;;;;4985198;28;20035;-68
2023/01/17 06:20:35;;;;;;;14.05;7.43;;;3.50;68.60;;;;;;5042791;23;20053;-65
2023/01/17 06:23:03;;;;;;;11.43;5.72;;;3.50;68.30;;;;;;5034335;28;20026;-66
2023/01/17 06:25:29;;;;;;;9.48;5.43;;;3.40;68.20;;;;;;5029281;28;20033;-66
2023/01/17 06:27:55;;;;;;;7.13;4.20;;;3.60;68.30;;;;;;5036775;28;20022;-65
2023/01/17 06:30:21;;;;;;;8.73;4.03;;;3.30;68.40;;;;;;5043780;28;20039;-66
2023/01/17 06:32:55;;;;;;;7.70;4.70;;;3.20;68.50;;;;;;5036540;28;20065;-66
2023/01/17 06:35:22;;;;;;;9.38;4.95;;;3.20;68.60;;;;;;5032756;28;20022;-66
2023/01/17 06:37:54;;;;;;;5.05;3.58;;;3.20;68.60;;;;;;5030006;28;20097;-66
2023/01/17 06:40:26;;;;;;;6.25;3.60;;;3.10;68.60;;;;;;5033845;28;20489;-66
2023/01/17 06:42:53;;;;;;;8.10;4.13;;;3.10;68.60;;;;;;5031178;28;20022;-65
2023/01/17 06:45:19;;;;;;;8.65;4.20;;;3.00;68.50;;;;;;5038350;28;20052;-65
2023/01/17 06:47:45;;;;;;;6.68;4.00;;;3.00;68.50;;;;;;5026892;28;20061;-65
2023/01/17 06:50:13;;;;;;;7.93;3.08;;;2.90;68.60;;;;;;5033514;28;20030;-65
2023/01/17 06:52:40;;;;;;;7.45;3.80;;;2.90;68.70;;;;;;5037164;28;20021;-66
2023/01/17 06:55:06;;;;;;;5.80;4.28;;;2.70;68.70;;;;;;5042468;28;20041;-66
2023/01/17 06:57:32;;;;;;;5.70;3.88;;;2.80;68.80;;;;;;5026390;28;20037;-66
2023/01/17 06:59:58;;;;;;;7.05;3.60;;;3.00;68.90;;;;;;5029280;28;20403;-65
2023/01/17 07:02:23;;;;;;;7.35;4.28;;;2.70;68.70;;;;;;5034471;28;20029;-65
2023/01/17 07:04:49;;;;;;;9.63;4.10;;;2.70;68.90;;;;;;5030760;28;20056;-65
2023/01/17 07:07:15;;;;;;;8.32;4.57;;;2.70;69.10;;;;;;5034035;28;20538;-65
2023/01/17 07:09:40;;;;;;;9.32;4.80;;;2.60;69.20;;;;;;5025629;28;20030;-65
2023/01/17 07:12:06;;;;;;;8.95;5.00;;;2.60;69.30;;;;;;5032406;28;20037;-66
2023/01/17 07:14:32;;;;;;;8.43;4.30;;;2.60;69.50;;;;;;5030481;28;20026;-65
2023/01/17 07:16:57;;;;;;;6.38;3.38;;;2.60;69.60;;;;;;5012005;28;20042;-65
2023/01/17 07:19:24;;;;;;;6.45;4.35;;;2.60;69.70;;;;;;5037188;28;20068;-65
2023/01/17 07:21:51;;;;;;;9.80;4.57;;;2.60;69.60;;;;;;5031120;28;20029;-66
2023/01/17 07:24:18;;;;;;;7.95;5.60;;;2.60;69.70;;;;;;5029489;28;20057;-65
2023/01/17 07:26:46;;;;;;;5.40;3.55;;;2.60;69.80;;;;;;5027439;28;20048;-65
2023/01/17 07:29:12;;;;;;;6.40;2.50;;;2.60;69.90;;;;;;5034093;28;20029;-65
2023/01/17 07:31:39;;;;;;;4.35;2.28;;;2.60;70.00;;;;;;5031030;28;20041;-65
2023/01/17 07:34:05;;;;;;;2.40;2.05;;;2.60;70.20;;;;;;5031710;28;20129;-65
2023/01/17 07:36:31;;;;;;;3.75;2.58;;;2.70;70.30;;;;;;5032518;28;20038;-65
2023/01/17 07:38:57;;;;;;;4.82;2.70;;;2.70;70.20;;;;;;5034518;28;20043;-65
2023/01/17 07:41:23;;;;;;;4.18;2.90;;;2.70;70.00;;;;;;5031077;28;20053;-66
2023/01/17 07:43:49;;;;;;;4.97;2.92;;;2.70;70.00;;;;;;5037503;28;20022;-66
2023/01/17 07:46:14;;;;;;;6.68;2.92;;;2.80;70.00;;;;;;5034208;28;20039;-65
2023/01/17 07:48:40;;;;;;;8.93;4.32;;;2.80;69.90;;;;;;5033807;28;20030;-66
2023/01/17 07:51:07;;;;;;;7.55;4.30;;;2.80;69.80;;;;;;5016593;28;20047;-65
2023/01/17 07:53:33;;;;;;;6.75;3.90;;;2.80;69.70;;;;;;5039477;28;20080;-65
2023/01/17 07:56:01;;;;;;;6.90;2.97;;;2.80;69.60;;;;;;5033277;28;20033;-65
2023/01/17 07:58:27;;;;;;;4.25;2.58;;;2.80;69.70;;;;;;5029561;28;20101;-65
2023/01/17 08:00:53;;;;;;;4.25;3.15;;;2.80;69.70;;;;;;5033039;28;20069;-65
2023/01/17 08:03:19;;;;;;;5.35;3.13;;;2.80;69.60;;;;;;5017170;28;20038;-66
2023/01/17 08:05:56;;;;;;;12.70;3.42;;;2.70;69.50;;;;;;5035139;28;20038;-65
2023/01/17 08:08:22;;;;;;;6.57;3.00;;;2.70;69.50;;;;;;5029476;28;20109;-65
2023/01/17 08:10:48;;;;;;;5.88;3.33;;;3.10;69.80;;;;;;5035155;28;20037;-66
2023/01/17 08:13:14;;;;;;;6.90;3.30;;;2.70;69.70;;;;;;5032303;28;20017;-65
2023/01/17 08:15:40;;;;;;;5.07;2.97;;;2.70;70.00;;;;;;5034865;28;20406;-66
2023/01/17 08:18:05;;;;;;;5.05;2.60;;;2.80;70.10;;;;;;5035035;28;20025;-65
2023/01/17 08:20:31;;;;;;;5.05;2.50;;;2.80;70.00;;;;;;5036302;28;20045;-65
2023/01/17 08:22:56;;;;;;;4.35;2.67;;;2.80;70.00;;;;;;5039387;28;20063;-65
2023/01/17 08:25:24;;;;;;;12.38;5.78;;;2.90;70.60;;;;;;5025731;28;20064;-66
2023/01/17 08:27:50;;;;;;;10.73;5.40;;;2.90;70.20;;;;;;5036754;28;20049;-65
2023/01/17 08:30:17;;;;;;;17.42;9.23;;;3.10;70.40;;;;;;5025612;28;20037;-65
2023/01/17 08:32:43;;;;;;;20.15;10.52;;;3.00;70.40;;;;;;5025438;28;20028;-65
2023/01/17 08:35:09;;;;;;;27.98;13.85;;;3.00;70.20;;;;;;5035605;28;20026;-65
2023/01/17 08:37:36;;;;;;;30.38;14.68;;;3.10;70.30;;;;;;5035418;28;20368;-65
2023/01/17 08:40:04;;;;;;;32.38;13.60;;;3.10;70.20;;;;;;5035488;28;20048;-65
2023/01/17 08:42:36;;;;;;;25.02;9.85;;;3.10;70.10;;;;;;5030788;28;20025;-65
2023/01/17 08:45:03;;;;;;;16.65;7.57;;;3.10;69.90;;;;;;5029786;28;20026;-65
2023/01/17 08:47:30;;;;;;;12.32;6.47;;;3.10;69.90;;;;;;5011136;28;20038;-65
2023/01/17 08:49:58;;;;;;;13.38;5.93;;;3.10;69.90;;;;;;5036206;28;20018;-65
2023/01/17 08:52:24;;;;;;;9.93;5.18;;;3.10;69.90;;;;;;5028840;28;20049;-65
2023/01/17 08:54:50;;;;;;;7.68;4.40;;;3.10;70.10;;;;;;5024596;28;20033;-65
2023/01/17 08:57:16;;;;;;;5.35;3.80;;;3.30;70.50;;;;;;5028491;28;20037;-65
2023/01/17 08:59:42;;;;;;;7.88;3.83;;;3.30;70.70;;;;;;5035648;28;20076;-65
2023/01/17 09:02:15;;;;;;;7.60;3.60;;;3.30;70.90;;;;;;5033747;28;20036;-64
2023/01/17 09:04:48;;;;;;;7.60;3.20;;;3.30;70.90;;;;;;5028887;28;20048;-65
2023/01/17 09:07:19;;;;;;;6.93;3.80;;;3.50;71.00;;;;;;5030734;28;20034;-65
2023/01/17 09:09:45;;;;;;;6.07;3.78;;;3.60;70.90;;;;;;5035333;28;20018;-65
2023/01/17 09:12:11;;;;;;;10.63;4.50;;;3.70;70.80;;;;;;5032270;28;20020;-65
2023/01/17 09:14:37;;;;;;;11.27;4.63;;;3.80;70.60;;;;;;5016804;28;20056;-65
2023/01/17 09:17:04;;;;;;;11.55;4.90;;;3.90;70.40;;;;;;5028800;28;20037;-66
2023/01/17 09:19:30;;;;;;;8.60;5.03;;;4.00;70.20;;;;;;5034965;28;20060;-66
2023/01/17 09:21:56;;;;;;;8.23;4.65;;;4.00;70.00;;;;;;5038113;28;20034;-65
2023/01/17 09:24:21;;;;;;;13.18;4.60;;;4.10;70.00;;;;;;5027134;28;20025;-65
2023/01/17 09:26:47;;;;;;;8.20;4.45;;;4.20;70.70;;;;;;5024548;28;20030;-65
2023/01/17 09:29:16;;;;;;;10.85;4.10;;;4.20;69.90;;;;;;5031188;28;20075;-66
2023/01/17 09:31:43;;;;;;;8.00;4.13;;;4.30;69.80;;;;;;5024320;28;20501;-66
2023/01/17 09:34:08;;;;;;;9.23;4.10;;;4.40;69.70;;;;;;5027532;28;20109;-66
2023/01/17 09:36:34;;;;;;;7.93;4.78;;;4.50;69.60;;;;;;5033019;28;20499;-66
2023/01/17 09:39:01;;;;;;;9.48;4.45;;;4.50;69.50;;;;;;5033687;28;20049;-66
2023/01/17 09:41:31;;;;;;;11.52;4.50;;;4.50;70.10;;;;;;5033175;28;20057;-66
2023/01/17 09:44:26;;;;;;;8.05;4.47;;;4.60;69.30;;;;;;5033622;28;20040;-66
2023/01/17 09:46:55;;;;;;;5.93;3.25;;;4.60;69.10;;;;;;5036792;28;20121;-65
2023/01/17 09:49:43;;;;;;;3.88;2.50;;;4.70;69.00;;;;;;5033652;28;20025;-65
2023/01/17 09:52:22;;;;;;;10.75;2.83;;;4.70;68.80;;;;;;5032805;28;20028;-66
2023/01/17 09:54:48;;;;;;;3.88;3.00;;;4.80;68.90;;;;;;5033248;28;20025;-65
2023/01/17 09:57:37;;;;;;;8.00;3.47;;;4.80;68.90;;;;;;5039846;28;20030;-65
2023/01/17 10:00:17;;;;;;;11.15;4.38;;;4.90;69.00;;;;;;5030135;28;20085;-65
2023/01/17 10:03:01;;;;;;;8.25;4.75;;;4.90;69.00;;;;;;5022366;28;20029;-65
2023/01/17 10:05:36;;;;;;;10.35;4.10;;;5.00;69.10;;;;;;5034945;28;20077;-65
2023/01/17 10:08:16;;;;;;;9.38;3.72;;;5.10;69.10;;;;;;5035525;28;20060;-65
2023/01/17 10:11:08;;;;;;;13.63;4.80;;;5.10;69.10;;;;;;5035364;28;20014;-65
2023/01/17 10:14:06;;;;;;;8.93;3.28;;;5.30;69.00;;;;;;5034981;28;20029;-65
2023/01/17 10:16:47;;;;;;;7.07;3.45;;;5.30;68.80;;;;;;5020311;28;20038;-65
2023/01/17 10:19:36;;;;;;;7.95;3.28;;;5.40;68.70;;;;;;4962321;28;20053;-65
2023/01/17 10:22:21;;;;;;;6.10;3.35;;;5.50;68.70;;;;;;5033470;28;20030;-66
2023/01/17 10:24:52;;;;;;;7.05;3.05;;;5.60;68.30;;;;;;5032885;28;20037;-65
2023/01/17 10:27:23;;;;;;;8.25;3.80;;;5.70;68.60;;;;;;5031274;28;20045;-65
2023/01/17 10:29:50;;;;;;;5.20;3.13;;;5.80;68.70;;;;;;5036126;28;20018;-65
2023/01/17 10:32:15;;;;;;;5.13;3.28;;;5.90;68.70;;;;;;5033749;28;20049;-65
2023/01/17 10:34:49;;;;;;;10.50;4.25;;;6.00;68.40;;;;;;5029705;28;20028;-66
2023/01/17 10:37:39;;;;;;;7.20;4.53;;;6.10;68.10;;;;;;5026702;28;20042;-65
2023/01/17 10:40:37;;;;;;;7.78;3.75;;;6.30;67.70;;;;;;5028878;28;20982;-66
2023/01/17 10:43:15;;;;;;;8.50;4.40;;;6.30;67.50;;;;;;5029793;28;20029;-65
2023/01/17 10:45:50;;;;;;;13.40;4.80;;;6.40;67.50;;;;;;5036011;28;20025;-65
2023/01/17 10:48:41;;;;;;;9.38;3.90;;;6.50;67.70;;;;;;5017792;28;20022;-65
2023/01/17 10:51:27;;;;;;;9.18;4.40;;;6.50;67.30;;;;;;5031312;28;20036;-66
2023/01/17 10:54:05;;;;;;;16.30;6.68;;;6.60;67.40;;;;;;5026540;28;20029;-66
2023/01/17 10:56:33;;;;;;;17.52;5.63;;;6.70;67.40;;;;;;5036249;28;20037;-65
2023/01/17 10:59:13;;;;;;;13.18;5.03;;;6.70;67.20;;;;;;5033302;28;20065;-65
2023/01/17 11:01:38;;;;;;;17.75;6.13;;;6.80;66.80;;;;;;5033069;28;20037;-65
2023/01/17 11:04:20;;;;;;;15.30;5.50;;;6.80;66.90;;;;;;5040388;28;20085;-65
2023/01/17 11:07:06;;;;;;;19.27;6.18;;;6.90;66.50;;;;;;5027919;28;20037;-65
2023/01/17 11:09:44;;;;;;;14.95;5.70;;;7.00;66.40;;;;;;5033459;28;20030;-66
2023/01/17 11:12:18;;;;;;;16.70;4.72;;;7.00;65.70;;;;;;5035074;28;20071;-66
2023/01/17 11:14:57;;;;;;;;;;;7.00;65.60;;;;;;5037003;28;20029;-65
2023/01/17 11:17:24;;;;;;;16.95;5.50;;;7.00;65.50;;;;;;5036827;28;19917;-66
2023/01/17 11:19:51;;;;;;;9.35;4.00;;;7.00;65.90;;;;;;5029810;28;20061;-66
2023/01/17 11:22:17;;;;;;;9.98;4.28;;;7.00;65.70;;;;;;5031622;28;20038;-66
2023/01/17 11:24:53;;;;;;;7.32;2.90;;;7.00;65.50;;;;;;5030153;28;20022;-65
2023/01/17 11:27:26;;;;;;;5.82;2.83;;;7.00;64.50;;;;;;5032360;28;20108;-66
2023/01/17 11:30:14;;;;;;;8.48;2.80;;;7.10;65.20;;;;;;5034843;28;20030;-65
2023/01/17 11:32:55;;;;;;;8.50;3.30;;;7.20;62.90;;;;;;5033451;28;20025;-66
2023/01/17 11:35:26;;;;;;;4.22;2.30;;;7.20;63.20;;;;;;5034918;28;20026;-65
2023/01/17 11:38:12;;;;;;;4.47;2.50;;;7.30;63.70;;;;;;5029477;28;20096;-65
2023/01/17 11:40:43;;;;;;;7.93;4.10;;;7.30;62.30;;;;;;5025088;28;20316;-65
2023/01/17 11:43:17;;;;;;;88.30;28.30;;;7.40;62.80;;;;;;5037197;28;20025;-66
2023/01/17 11:45:44;;;;;;;32.87;14.80;;;7.50;62.70;;;;;;5033289;28;20030;-66
2023/01/17 11:48:14;;;;;;;20.65;8.93;;;7.50;62.20;;;;;;5031974;28;20276;-66
2023/01/17 11:51:02;;;;;;;10.27;4.93;;;7.60;61.80;;;;;;5031309;28;20088;-66
2023/01/17 11:53:37;;;;;;;20.77;9.43;;;7.60;60.30;;;;;;5038527;28;20025;-65
2023/01/17 11:56:32;;;;;;;14.18;7.30;;;7.60;60.00;;;;;;5025510;28;20029;-65
2023/01/17 11:59:25;;;;;;;23.90;11.73;;;7.60;58.50;;;;;;5034438;28;20026;-66
2023/01/17 12:02:04;;;;;;;28.80;13.75;;;7.60;58.50;;;;;;5029898;28;20420;-66
2023/01/17 12:04:36;;;;;;;31.23;13.77;;;7.60;59.90;;;;;;5033662;28;20120;-66
2023/01/17 12:07:31;;;;;;;13.05;6.50;;;7.60;59.40;;;;;;5031780;28;20026;-66
2023/01/17 12:10:18;;;;;;;63.97;26.50;;;7.50;57.90;;;;;;5022832;28;20037;-66
2023/01/17 12:19:25;;;;;;;8.98;6.03;;;7.50;58.70;;;;;;5030848;28;20395;-65
2023/01/17 12:22:27;;;;;;;7.30;3.92;;;7.50;57.20;;;;;;5034350;28;20067;-66
2023/01/17 12:25:29;;;;;;;6.43;2.53;;;7.40;57.50;;;;;;5028040;28;20029;-65
2023/01/17 12:27:58;;;;;;;9.48;2.58;;;7.40;57.70;;;;;;5040729;28;20048;-65
2023/01/17 12:31:02;;;;;;;6.68;2.83;;;7.40;58.80;;;;;;5031022;28;20030;-65
2023/01/17 12:33:33;;;;;;;5.45;2.70;;;7.40;57.80;;;;;;5033121;28;20037;-66
2023/01/17 12:36:08;;;;;;;14.38;4.22;;;7.30;58.80;;;;;;5030077;28;20038;-66
2023/01/17 12:38:39;;;;;;;16.08;3.92;;;7.30;58.40;;;;;;5032667;28;20029;-67
2023/01/17 12:41:12;;;;;;;5.43;3.15;;;7.30;58.20;;;;;;5034089;28;20030;-66
2023/01/17 12:43:42;;;;;;;6.20;3.25;;;7.40;58.30;;;;;;5035784;28;20067;-66
2023/01/17 12:46:25;;;;;;;7.18;3.00;;;7.30;57.90;;;;;;5030397;28;20038;-67
2023/01/17 12:49:01;;;;;;;6.68;3.10;;;7.30;57.70;;;;;;5033406;28;20032;-66
2023/01/17 12:51:32;;;;;;;10.60;3.42;;;7.30;58.10;;;;;;5029889;28;20017;-67
2023/01/17 12:54:27;;;;;;;6.63;3.22;;;7.30;58.40;;;;;;5034104;28;20036;-65
2023/01/17 12:57:01;;;;;;;12.05;3.65;;;7.30;57.50;;;;;;5024966;28;20034;-66
2023/01/17 13:00:04;;;;;;;6.73;3.50;;;7.30;57.80;;;;;;5025818;28;20084;-65
2023/01/17 13:02:35;;;;;;;5.88;3.30;;;7.20;57.10;;;;;;5025335;28;20025;-65
2023/01/17 13:05:14;;;;;;;6.53;2.95;;;7.20;57.70;;;;;;5033062;28;20021;-65
2023/01/17 13:08:16;;;;;;;8.85;3.40;;;7.20;57.70;;;;;;5037700;28;20102;-65
2023/01/17 13:10:53;;;;;;;4.68;3.00;;;7.20;56.70;;;;;;4969054;28;20066;-65
2023/01/17 13:13:26;;;;;;;7.10;3.22;;;7.10;57.00;;;;;;4979543;28;20052;-66
2023/01/17 13:16:22;;;;;;;7.90;3.05;;;7.10;57.50;;;;;;4983169;28;20863;-65
2023/01/17 13:18:51;;;;;;;6.70;3.78;;;7.10;56.80;;;;;;4977705;28;20058;-65
2023/01/17 13:21:30;;;;;;;15.48;7.28;;;7.10;57.70;;;;;;4985951;28;20101;-65
2023/01/17 13:23:57;;;;;;;14.27;9.07;;;7.10;57.40;;;;;;4982031;28;20086;-65
2023/01/17 13:26:54;;;;;;;8.05;4.18;;;7.10;58.00;;;;;;4986502;28;20035;-64
2023/01/17 13:29:20;;;;;;;5.70;3.75;;;7.10;56.80;;;;;;4979450;28;20031;-65
2023/01/17 13:32:27;;;;;;;7.97;5.57;;;7.10;57.90;;;;;;4986461;28;20043;-66
2023/01/17 13:35:05;;;;;;;16.58;9.23;;;7.10;56.60;;;;;;4970278;28;20046;-67
2023/01/17 13:37:45;;;;;;;9.52;5.60;;;7.00;56.90;;;;;;4966831;28;20505;-66
2023/01/17 13:40:30;;;;;;;6.80;4.05;;;7.00;56.80;;;;;;4979151;28;20172;-66
2023/01/17 13:43:00;;;;;;;;;;;7.00;56.70;;;;;;4965461;28;20031;-66
2023/01/17 13:45:32;;;;;;;10.23;4.90;;;7.00;56.40;;;;;;5014971;28;19936;-66
2023/01/17 13:48:16;;;;;;;7.25;4.28;;;7.00;57.60;;;;;;5029552;28;20060;-66
2023/01/17 13:50:54;;;;;;;14.93;7.80;;;6.90;56.90;;;;;;5031177;28;20037;-66
2023/01/17 13:53:38;;;;;;;7.35;4.35;;;6.90;56.80;;;;;;5031440;28;20079;-66
2023/01/17 13:56:12;;;;;;;8.20;4.03;;;6.90;56.70;;;;;;5032360;28;20033;-66
2023/01/17 13:58:48;;;;;;;6.35;4.00;;;6.90;56.80;;;;;;5016388;28;20060;-66
2023/01/17 14:01:20;;;;;;;9.68;6.75;;;6.80;57.10;;;;;;5027462;28;20026;-66
2023/01/17 14:03:49;;;;;;;6.82;3.67;;;6.80;57.30;;;;;;5024689;28;20068;-66
2023/01/17 14:06:43;;;;;;;11.20;4.53;;;6.80;57.00;;;;;;5026137;28;20026;-66
2023/01/17 14:09:11;;;;;;;12.23;6.43;;;6.80;56.50;;;;;;5029184;28;20071;-66
2023/01/17 14:12:05;;;;;;;11.55;6.03;;;6.80;57.10;;;;;;5033805;28;20022;-66
2023/01/17 14:15:00;;;;;;;8.82;3.35;;;6.80;56.50;;;;;;5028186;28;20411;-66
2023/01/17 14:17:34;;;;;;;7.15;4.15;;;6.80;56.90;;;;;;5029871;28;20049;-66
2023/01/17 14:20:04;;;;;;;7.60;3.22;;;6.70;57.50;;;;;;5024314;28;20061;-67
2023/01/17 14:22:37;;;;;;;5.90;3.33;;;6.70;56.50;;;;;;5031216;28;20022;-65
2023/01/17 14:25:08;;;;;;;4.90;2.92;;;6.60;57.00;;;;;;5038740;28;20097;-65
2023/01/17 14:27:49;;;;;;;5.32;3.05;;;6.60;57.30;;;;;;5029227;28;20125;-66
2023/01/17 14:30:16;;;;;;;6.25;3.03;;;6.50;56.90;;;;;;5034452;28;20025;-65
2023/01/17 14:32:57;;;;;;;5.85;3.00;;;6.50;57.40;;;;;;5017232;28;20017;-65
2023/01/17 14:35:24;;;;;;;6.38;2.80;;;6.40;57.40;;;;;;5033603;28;20045;-65
2023/01/17 14:37:52;;;;;;;5.40;3.15;;;6.40;57.40;;;;;;5029556;28;20038;-65
2023/01/17 14:40:25;;;;;;;5.38;2.83;;;6.30;57.50;;;;;;5020005;28;20036;-65
2023/01/17 14:43:05;;;;;;;6.00;2.78;;;6.30;57.70;;;;;;5032567;28;20064;-66
2023/01/17 14:45:33;;;;;;;4.82;2.53;;;6.20;57.60;;;;;;5031088;28;20030;-65
2023/01/17 14:48:05;;;;;;;6.20;3.03;;;6.20;58.10;;;;;;5033827;28;20089;-65
2023/01/17 14:50:40;;;;;;;6.57;2.83;;;6.20;58.20;;;;;;5030345;28;20017;-65
2023/01/17 14:53:19;;;;;;;9.43;4.90;;;6.20;58.10;;;;;;5035115;28;20018;-66
2023/01/17 14:55:51;;;;;;;5.00;2.80;;;6.20;57.90;;;;;;5030751;28;20049;-64
2023/01/17 14:58:17;;;;;;;3.92;2.63;;;6.10;58.00;;;;;;5011726;28;20048;-65
2023/01/17 15:00:43;;;;;;;5.05;2.05;;;6.10;58.20;;;;;;5026523;28;20021;-65
2023/01/17 15:03:12;;;;;;;4.05;2.50;;;6.10;58.40;;;;;;5034328;28;20045;-65
2023/01/17 15:05:45;;;;;;;3.55;2.30;;;6.00;58.20;;;;;;5029725;28;20045;-66
2023/01/17 15:08:15;;;;;;;5.03;2.40;;;6.00;58.00;;;;;;5027442;28;20112;-64
2023/01/17 15:10:54;;;;;;;2.60;1.83;;;6.00;58.30;;;;;;5033928;28;20033;-64
2023/01/17 15:13:33;;;;;;;7.20;3.67;;;6.00;57.80;;;;;;5032411;28;21003;-64
2023/01/17 15:16:07;;;;;;;5.85;2.83;;;6.00;57.90;;;;;;5029158;28;20061;-63